sensor_id;sensor_type;location;lat;lon;timestamp;temperature;humidity
41939;DHT22;23057;48.554;14.454;2022-12-18T00:01:57;-10.50;99.90
41939;DHT22;23057;48.554;14.454;2022-12-18T00:04:29;-10.40;99.90
41939;DHT22;23057;48.554;14.454;2022-12-18T00:07:01;-10.40;99.90
41939;DHT22;23057;48.554;14.454;2022-12-18T00:09:31;-10.50;99.90
41939;DHT22;23057;48.554;14.454;2022-12-18T00:12:02;-10.70;99.90
41939;DHT22;23057;48.554;14.454;2022-12-18T00:14:34;-10.70;99.90
41939;DHT22;23057;48.554;14.454;2022-12-18T00:17:05;-10.70;99.90
41939;DHT22;23057;48.554;14.454;2022-12-18T00:19:35;-10.70;99.90
41939;DHT22;23057;48.554;14.454;2022-12-18T00:22:06;-10.80;99.90
41939;DHT22;23057;48.554;14.454;2022-12-18T00:24:37;-11.00;99.90
41939;DHT22;23057;48.554;14.454;2022-12-18T00:27:08;-11.10;99.90
41939;DHT22;23057;48.554;14.454;2022-12-18T00:29:39;-11.10;99.90
41939;DHT22;23057;48.554;14.454;2022-12-18T00:32:09;-11.10;99.90
41939;DHT22;23057;48.554;14.454;2022-12-18T00:34:40;-11.10;99.90
41939;DHT22;23057;48.554;14.454;2022-12-18T00:37:11;-11.10;99.90
41939;DHT22;23057;48.554;14.454;2022-12-18T00:39:42;-11.20;99.90
41939;DHT22;23057;48.554;14.454;2022-12-18T00:42:13;-11.20;99.90
41939;DHT22;23057;48.554;14.454;2022-12-18T00:45:02;-11.20;99.90
41939;DHT22;23057;48.554;14.454;2022-12-18T00:47:33;-11.20;99.90
41939;DHT22;23057;48.554;14.454;2022-12-18T00:50:04;-11.20;99.90
41939;DHT22;23057;48.554;14.454;2022-12-18T00:52:36;-11.20;99.90
41939;DHT22;23057;48.554;14.454;2022-12-18T00:55:07;-11.20;99.90
41939;DHT22;23057;48.554;14.454;2022-12-18T00:57:39;-11.20;99.90
41939;DHT22;23057;48.554;14.454;2022-12-18T01:00:13;-11.20;99.90
41939;DHT22;23057;48.554;14.454;2022-12-18T01:02:45;-11.30;99.90
41939;DHT22;23057;48.554;14.454;2022-12-18T01:05:16;-11.40;99.90
41939;DHT22;23057;48.554;14.454;2022-12-18T01:07:47;-11.50;99.90
41939;DHT22;23057;48.554;14.454;2022-12-18T01:10:18;-11.50;99.90
41939;DHT22;23057;48.554;14.454;2022-12-18T01:12:49;-11.50;99.90
41939;DHT22;23057;48.554;14.454;2022-12-18T01:15:20;-11.60;99.90
41939;DHT22;23057;48.554;14.454;2022-12-18T01:17:52;-11.60;99.90
41939;DHT22;23057;48.554;14.454;2022-12-18T01:20:24;-11.80;99.90
41939;DHT22;23057;48.554;14.454;2022-12-18T01:22:54;-11.80;99.90
41939;DHT22;23057;48.554;14.454;2022-12-18T01:25:25;-11.70;99.90
41939;DHT22;23057;48.554;14.454;2022-12-18T01:27:56;-11.70;99.90
41939;DHT22;23057;48.554;14.454;2022-12-18T01:30:27;-11.70;99.90
41939;DHT22;23057;48.554;14.454;2022-12-18T01:32:58;-11.60;99.90
41939;DHT22;23057;48.554;14.454;2022-12-18T01:35:28;-11.60;99.90
41939;DHT22;23057;48.554;14.454;2022-12-18T01:37:59;-11.70;99.90
41939;DHT22;23057;48.554;14.454;2022-12-18T01:40:30;-11.70;99.90
41939;DHT22;23057;48.554;14.454;2022-12-18T01:43:01;-11.80;99.90
41939;DHT22;23057;48.554;14.454;2022-12-18T01:45:32;-11.80;99.90
41939;DHT22;23057;48.554;14.454;2022-12-18T01:48:08;-11.80;99.90
41939;DHT22;23057;48.554;14.454;2022-12-18T01:50:41;-11.80;99.90
41939;DHT22;23057;48.554;14.454;2022-12-18T01:53:17;-11.90;99.90
41939;DHT22;23057;48.554;14.454;2022-12-18T01:55:55;-11.90;99.90
41939;DHT22;23057;48.554;14.454;2022-12-18T01:59:17;-11.90;99.90
41939;DHT22;23057;48.554;14.454;2022-12-18T02:01:41;-11.90;99.90
41939;DHT22;23057;48.554;14.454;2022-12-18T02:04:21;-12.00;99.90
41939;DHT22;23057;48.554;14.454;2022-12-18T02:09:48;-12.10;99.90
41939;DHT22;23057;48.554;14.454;2022-12-18T02:16:02;-12.10;99.90
41939;DHT22;23057;48.554;14.454;2022-12-18T02:18:52;-12.20;99.90
41939;DHT22;23057;48.554;14.454;2022-12-18T02:22:00;-12.30;99.90
41939;DHT22;23057;48.554;14.454;2022-12-18T02:25:32;-12.30;99.90
41939;DHT22;23057;48.554;14.454;2022-12-18T02:28:37;-12.30;99.90
41939;DHT22;23057;48.554;14.454;2022-12-18T02:31:21;-12.40;99.90
41939;DHT22;23057;48.554;14.454;2022-12-18T02:34:00;-12.50;99.90
41939;DHT22;23057;48.554;14.454;2022-12-18T02:36:36;-12.40;99.90
41939;DHT22;23057;48.554;14.454;2022-12-18T02:39:12;-12.40;99.90
41939;DHT22;23057;48.554;14.454;2022-12-18T02:41:47;-12.50;99.90
41939;DHT22;23057;48.554;14.454;2022-12-18T02:44:19;-12.60;99.90
41939;DHT22;23057;48.554;14.454;2022-12-18T02:46:52;-12.60;99.90
41939;DHT22;23057;48.554;14.454;2022-12-18T02:52:17;-12.60;99.90
41939;DHT22;23057;48.554;14.454;2022-12-18T02:55:39;-12.60;99.90
41939;DHT22;23057;48.554;14.454;2022-12-18T03:04:43;-12.80;99.90
41939;DHT22;23057;48.554;14.454;2022-12-18T03:07:37;-12.70;99.90
41939;DHT22;23057;48.554;14.454;2022-12-18T03:10:18;-12.80;99.90
41939;DHT22;23057;48.554;14.454;2022-12-18T03:13:04;-12.80;99.90
41939;DHT22;23057;48.554;14.454;2022-12-18T03:15:47;-12.90;99.90
41939;DHT22;23057;48.554;14.454;2022-12-18T03:18:30;-12.90;99.90
41939;DHT22;23057;48.554;14.454;2022-12-18T03:21:09;-12.90;99.90
41939;DHT22;23057;48.554;14.454;2022-12-18T03:23:48;-12.90;99.90
41939;DHT22;23057;48.554;14.454;2022-12-18T03:26:25;-12.80;99.90
41939;DHT22;23057;48.554;14.454;2022-12-18T03:29:05;-12.80;99.90
41939;DHT22;23057;48.554;14.454;2022-12-18T03:31:51;-12.80;99.90
41939;DHT22;23057;48.554;14.454;2022-12-18T03:34:32;-12.80;99.90
41939;DHT22;23057;48.554;14.454;2022-12-18T03:37:09;-12.90;99.90
41939;DHT22;23057;48.554;14.454;2022-12-18T03:39:40;-12.90;99.90
41939;DHT22;23057;48.554;14.454;2022-12-18T03:42:29;-12.90;99.90
41939;DHT22;23057;48.554;14.454;2022-12-18T03:45:38;-13.00;99.90
41939;DHT22;23057;48.554;14.454;2022-12-18T03:48:38;-12.90;99.90
41939;DHT22;23057;48.554;14.454;2022-12-18T03:51:48;-12.90;99.90
41939;DHT22;23057;48.554;14.454;2022-12-18T03:54:28;-12.90;99.90
41939;DHT22;23057;48.554;14.454;2022-12-18T03:57:14;-12.80;99.90
41939;DHT22;23057;48.554;14.454;2022-12-18T03:59:56;-12.80;99.90
41939;DHT22;23057;48.554;14.454;2022-12-18T04:02:33;-12.90;99.90
41939;DHT22;23057;48.554;14.454;2022-12-18T04:05:10;-12.90;99.90
41939;DHT22;23057;48.554;14.454;2022-12-18T04:07:44;-13.00;99.90
41939;DHT22;23057;48.554;14.454;2022-12-18T04:10:18;-13.00;99.90
41939;DHT22;23057;48.554;14.454;2022-12-18T04:12:50;-13.00;99.90
41939;DHT22;23057;48.554;14.454;2022-12-18T04:15:21;-12.90;99.90
41939;DHT22;23057;48.554;14.454;2022-12-18T04:17:52;-12.80;99.90
41939;DHT22;23057;48.554;14.454;2022-12-18T04:20:22;-12.90;99.90
41939;DHT22;23057;48.554;14.454;2022-12-18T04:22:53;-12.90;99.90
41939;DHT22;23057;48.554;14.454;2022-12-18T04:25:24;-13.00;99.90
41939;DHT22;23057;48.554;14.454;2022-12-18T04:27:55;-13.10;99.90
41939;DHT22;23057;48.554;14.454;2022-12-18T04:30:26;-13.10;99.90
41939;DHT22;23057;48.554;14.454;2022-12-18T04:32:56;-13.20;99.90
41939;DHT22;23057;48.554;14.454;2022-12-18T04:35:27;-13.10;99.90
41939;DHT22;23057;48.554;14.454;2022-12-18T04:37:58;-13.00;99.90
41939;DHT22;23057;48.554;14.454;2022-12-18T04:40:29;-13.20;99.90
41939;DHT22;23057;48.554;14.454;2022-12-18T04:43:00;-13.30;99.90
41939;DHT22;23057;48.554;14.454;2022-12-18T04:45:31;-13.30;99.90
41939;DHT22;23057;48.554;14.454;2022-12-18T04:48:03;-13.30;99.90
41939;DHT22;23057;48.554;14.454;2022-12-18T04:50:34;-13.40;99.90
41939;DHT22;23057;48.554;14.454;2022-12-18T04:53:05;-13.40;99.90
41939;DHT22;23057;48.554;14.454;2022-12-18T04:55:36;-13.20;99.90
41939;DHT22;23057;48.554;14.454;2022-12-18T04:58:07;-13.00;99.90
41939;DHT22;23057;48.554;14.454;2022-12-18T05:00:38;-13.00;99.90
41939;DHT22;23057;48.554;14.454;2022-12-18T05:03:09;-12.80;99.90
41939;DHT22;23057;48.554;14.454;2022-12-18T05:05:39;-12.80;99.90
41939;DHT22;23057;48.554;14.454;2022-12-18T05:08:10;-12.90;99.90
41939;DHT22;23057;48.554;14.454;2022-12-18T05:10:41;-12.90;99.90
41939;DHT22;23057;48.554;14.454;2022-12-18T05:13:12;-13.00;99.90
41939;DHT22;23057;48.554;14.454;2022-12-18T05:15:51;-13.10;99.90
41939;DHT22;23057;48.554;14.454;2022-12-18T05:18:24;-13.10;99.90
41939;DHT22;23057;48.554;14.454;2022-12-18T05:20:55;-13.00;99.90
41939;DHT22;23057;48.554;14.454;2022-12-18T05:23:26;-13.00;99.90
41939;DHT22;23057;48.554;14.454;2022-12-18T05:26:03;-13.10;99.90
41939;DHT22;23057;48.554;14.454;2022-12-18T05:28:36;-13.10;99.90
41939;DHT22;23057;48.554;14.454;2022-12-18T05:31:07;-13.10;99.90
41939;DHT22;23057;48.554;14.454;2022-12-18T05:33:38;-13.20;99.90
41939;DHT22;23057;48.554;14.454;2022-12-18T05:36:10;-13.20;99.90
41939;DHT22;23057;48.554;14.454;2022-12-18T05:38:42;-13.20;99.90
41939;DHT22;23057;48.554;14.454;2022-12-18T05:41:12;-13.20;99.90
41939;DHT22;23057;48.554;14.454;2022-12-18T05:43:43;-13.10;99.90
41939;DHT22;23057;48.554;14.454;2022-12-18T05:46:16;-13.20;99.90
41939;DHT22;23057;48.554;14.454;2022-12-18T05:48:48;-13.60;99.90
41939;DHT22;23057;48.554;14.454;2022-12-18T05:51:21;-13.60;99.90
41939;DHT22;23057;48.554;14.454;2022-12-18T05:53:53;-13.60;99.90
41939;DHT22;23057;48.554;14.454;2022-12-18T05:56:24;-13.50;99.90
41939;DHT22;23057;48.554;14.454;2022-12-18T05:58:54;-13.50;99.90
41939;DHT22;23057;48.554;14.454;2022-12-18T06:01:26;-13.50;99.90
41939;DHT22;23057;48.554;14.454;2022-12-18T06:03:57;-13.60;99.90
41939;DHT22;23057;48.554;14.454;2022-12-18T06:06:28;-13.70;99.90
41939;DHT22;23057;48.554;14.454;2022-12-18T06:08:59;-13.60;99.90
41939;DHT22;23057;48.554;14.454;2022-12-18T06:11:31;-13.50;99.90
41939;DHT22;23057;48.554;14.454;2022-12-18T06:14:04;-13.40;99.90
41939;DHT22;23057;48.554;14.454;2022-12-18T06:16:36;-13.50;99.90
41939;DHT22;23057;48.554;14.454;2022-12-18T06:19:07;-13.40;99.90
41939;DHT22;23057;48.554;14.454;2022-12-18T06:21:38;-13.30;99.90
41939;DHT22;23057;48.554;14.454;2022-12-18T06:24:09;-13.50;99.90
41939;DHT22;23057;48.554;14.454;2022-12-18T06:26:40;-13.60;99.90
41939;DHT22;23057;48.554;14.454;2022-12-18T06:29:11;-13.70;99.90
41939;DHT22;23057;48.554;14.454;2022-12-18T06:31:42;-13.80;99.90
41939;DHT22;23057;48.554;14.454;2022-12-18T06:34:13;-13.90;99.90
41939;DHT22;23057;48.554;14.454;2022-12-18T06:36:44;-14.00;99.90
41939;DHT22;23057;48.554;14.454;2022-12-18T06:39:14;-14.00;99.90
41939;DHT22;23057;48.554;14.454;2022-12-18T06:41:45;-13.90;99.90
41939;DHT22;23057;48.554;14.454;2022-12-18T06:44:16;-13.90;99.90
41939;DHT22;23057;48.554;14.454;2022-12-18T06:46:47;-13.80;99.90
41939;DHT22;23057;48.554;14.454;2022-12-18T06:49:18;-13.70;99.90
41939;DHT22;23057;48.554;14.454;2022-12-18T06:51:49;-13.70;99.90
41939;DHT22;23057;48.554;14.454;2022-12-18T06:54:20;-13.60;99.90
41939;DHT22;23057;48.554;14.454;2022-12-18T06:56:50;-13.60;99.90
41939;DHT22;23057;48.554;14.454;2022-12-18T06:59:21;-13.50;99.90
41939;DHT22;23057;48.554;14.454;2022-12-18T07:01:52;-13.40;99.90
41939;DHT22;23057;48.554;14.454;2022-12-18T07:04:30;-13.40;99.90
41939;DHT22;23057;48.554;14.454;2022-12-18T07:07:02;-13.40;99.90
41939;DHT22;23057;48.554;14.454;2022-12-18T07:09:33;-13.30;99.90
41939;DHT22;23057;48.554;14.454;2022-12-18T07:12:04;-13.20;99.90
41939;DHT22;23057;48.554;14.454;2022-12-18T07:14:35;-13.00;99.90
41939;DHT22;23057;48.554;14.454;2022-12-18T07:17:06;-13.20;99.90
41939;DHT22;23057;48.554;14.454;2022-12-18T07:19:37;-13.20;99.90
41939;DHT22;23057;48.554;14.454;2022-12-18T07:22:07;-13.00;99.90
41939;DHT22;23057;48.554;14.454;2022-12-18T07:24:38;-12.70;99.90
41939;DHT22;23057;48.554;14.454;2022-12-18T07:27:09;-12.70;99.90
41939;DHT22;23057;48.554;14.454;2022-12-18T07:29:40;-12.70;99.90
41939;DHT22;23057;48.554;14.454;2022-12-18T07:32:11;-12.70;99.90
41939;DHT22;23057;48.554;14.454;2022-12-18T07:34:41;-12.70;99.90
41939;DHT22;23057;48.554;14.454;2022-12-18T07:37:12;-12.50;99.90
41939;DHT22;23057;48.554;14.454;2022-12-18T07:39:43;-12.20;99.90
41939;DHT22;23057;48.554;14.454;2022-12-18T07:42:14;-12.10;99.90
41939;DHT22;23057;48.554;14.454;2022-12-18T07:45:01;-12.20;99.90
41939;DHT22;23057;48.554;14.454;2022-12-18T07:47:36;-12.20;99.90
41939;DHT22;23057;48.554;14.454;2022-12-18T07:50:07;-12.10;99.90
41939;DHT22;23057;48.554;14.454;2022-12-18T07:52:39;-12.00;99.90
41939;DHT22;23057;48.554;14.454;2022-12-18T07:55:09;-12.00;93.90
41939;DHT22;23057;48.554;14.454;2022-12-18T07:57:40;-11.90;13.30
41939;DHT22;23057;48.554;14.454;2022-12-18T08:00:12;-12.20;1.00
41939;DHT22;23057;48.554;14.454;2022-12-18T08:02:43;-12.30;99.90
41939;DHT22;23057;48.554;14.454;2022-12-18T08:05:14;-12.40;99.90
41939;DHT22;23057;48.554;14.454;2022-12-18T08:07:45;-12.30;99.90
41939;DHT22;23057;48.554;14.454;2022-12-18T08:10:16;-12.00;1.00
41939;DHT22;23057;48.554;14.454;2022-12-18T08:12:51;-11.60;1.00
41939;DHT22;23057;48.554;14.454;2022-12-18T08:15:22;-11.60;1.00
41939;DHT22;23057;48.554;14.454;2022-12-18T08:17:56;-11.50;99.90
41939;DHT22;23057;48.554;14.454;2022-12-18T08:20:27;-11.30;99.90
41939;DHT22;23057;48.554;14.454;2022-12-18T08:22:58;-11.10;99.90
41939;DHT22;23057;48.554;14.454;2022-12-18T08:25:29;-11.00;99.90
41939;DHT22;23057;48.554;14.454;2022-12-18T08:28:00;-11.00;99.90
41939;DHT22;23057;48.554;14.454;2022-12-18T08:30:30;-10.90;99.90
41939;DHT22;23057;48.554;14.454;2022-12-18T08:33:01;-11.10;83.80
41939;DHT22;23057;48.554;14.454;2022-12-18T08:35:36;-11.20;99.90
41939;DHT22;23057;48.554;14.454;2022-12-18T08:38:07;-11.20;99.90
41939;DHT22;23057;48.554;14.454;2022-12-18T08:40:38;-10.80;99.90
41939;DHT22;23057;48.554;14.454;2022-12-18T08:43:09;-10.80;99.90
41939;DHT22;23057;48.554;14.454;2022-12-18T08:46:03;-10.70;1.00
41939;DHT22;23057;48.554;14.454;2022-12-18T08:48:40;-10.40;1.00
41939;DHT22;23057;48.554;14.454;2022-12-18T08:51:10;-10.10;18.30
41939;DHT22;23057;48.554;14.454;2022-12-18T08:53:42;-9.90;1.00
41939;DHT22;23057;48.554;14.454;2022-12-18T08:56:14;-9.70;1.00
41939;DHT22;23057;48.554;14.454;2022-12-18T08:58:46;-9.70;99.90
41939;DHT22;23057;48.554;14.454;2022-12-18T09:01:17;-10.00;99.90
41939;DHT22;23057;48.554;14.454;2022-12-18T09:03:48;-10.20;99.90
41939;DHT22;23057;48.554;14.454;2022-12-18T09:06:21;-10.30;99.90
41939;DHT22;23057;48.554;14.454;2022-12-18T09:08:53;-10.30;99.90
41939;DHT22;23057;48.554;14.454;2022-12-18T09:11:26;-10.30;99.90
41939;DHT22;23057;48.554;14.454;2022-12-18T09:14:00;-10.30;99.90
41939;DHT22;23057;48.554;14.454;2022-12-18T09:16:32;-10.10;99.90
41939;DHT22;23057;48.554;14.454;2022-12-18T09:19:05;-10.20;99.90
41939;DHT22;23057;48.554;14.454;2022-12-18T09:21:36;-10.20;99.90
41939;DHT22;23057;48.554;14.454;2022-12-18T09:24:12;-10.00;99.90
41939;DHT22;23057;48.554;14.454;2022-12-18T09:26:44;-10.00;99.90
41939;DHT22;23057;48.554;14.454;2022-12-18T09:29:15;-9.70;99.90
41939;DHT22;23057;48.554;14.454;2022-12-18T09:31:46;-9.70;99.90
41939;DHT22;23057;48.554;14.454;2022-12-18T09:34:17;-9.70;99.90
41939;DHT22;23057;48.554;14.454;2022-12-18T09:36:48;-9.70;99.90
41939;DHT22;23057;48.554;14.454;2022-12-18T09:39:20;-9.60;99.90
41939;DHT22;23057;48.554;14.454;2022-12-18T09:41:56;-9.50;99.90
41939;DHT22;23057;48.554;14.454;2022-12-18T09:50:32;-9.90;99.90
41939;DHT22;23057;48.554;14.454;2022-12-18T09:53:26;-9.90;99.90
41939;DHT22;23057;48.554;14.454;2022-12-18T09:56:05;-9.90;99.90
41939;DHT22;23057;48.554;14.454;2022-12-18T09:58:55;-9.70;99.90
41939;DHT22;23057;48.554;14.454;2022-12-18T10:01:31;-9.70;99.90
41939;DHT22;23057;48.554;14.454;2022-12-18T10:04:05;-9.70;99.90
41939;DHT22;23057;48.554;14.454;2022-12-18T10:07:11;-9.60;99.90
41939;DHT22;23057;48.554;14.454;2022-12-18T10:10:19;-9.40;99.90
41939;DHT22;23057;48.554;14.454;2022-12-18T10:13:23;-9.20;99.90
41939;DHT22;23057;48.554;14.454;2022-12-18T10:16:19;-9.00;99.90
41939;DHT22;23057;48.554;14.454;2022-12-18T10:25:19;-8.00;99.90
41939;DHT22;23057;48.554;14.454;2022-12-18T10:28:09;-7.70;99.90
41939;DHT22;23057;48.554;14.454;2022-12-18T10:30:46;-7.60;99.90
41939;DHT22;23057;48.554;14.454;2022-12-18T10:33:19;-7.70;99.90
41939;DHT22;23057;48.554;14.454;2022-12-18T10:35:55;-7.60;99.90
41939;DHT22;23057;48.554;14.454;2022-12-18T10:38:27;-7.50;99.90
41939;DHT22;23057;48.554;14.454;2022-12-18T10:41:06;-7.40;99.90
41939;DHT22;23057;48.554;14.454;2022-12-18T10:44:17;-7.30;99.90
41939;DHT22;23057;48.554;14.454;2022-12-18T10:46:54;-7.20;99.90
41939;DHT22;23057;48.554;14.454;2022-12-18T10:49:34;-7.10;99.90
41939;DHT22;23057;48.554;14.454;2022-12-18T10:52:21;-6.90;99.90
41939;DHT22;23057;48.554;14.454;2022-12-18T10:54:58;-6.60;99.90
41939;DHT22;23057;48.554;14.454;2022-12-18T10:57:37;-6.70;39.00
41939;DHT22;23057;48.554;14.454;2022-12-18T11:02:59;-6.40;50.90
41939;DHT22;23057;48.554;14.454;2022-12-18T11:05:32;-6.10;82.20
41939;DHT22;23057;48.554;14.454;2022-12-18T11:08:04;-5.70;67.70
41939;DHT22;23057;48.554;14.454;2022-12-18T11:10:38;-5.60;1.00
41939;DHT22;23057;48.554;14.454;2022-12-18T11:13:17;-5.50;1.00
41939;DHT22;23057;48.554;14.454;2022-12-18T11:15:52;-5.40;1.00
41939;DHT22;23057;48.554;14.454;2022-12-18T11:18:33;-5.20;1.00
41939;DHT22;23057;48.554;14.454;2022-12-18T11:21:08;-5.10;1.00
41939;DHT22;23057;48.554;14.454;2022-12-18T11:23:52;-5.10;99.90
41939;DHT22;23057;48.554;14.454;2022-12-18T11:26:34;-5.00;99.90
41939;DHT22;23057;48.554;14.454;2022-12-18T11:29:16;-4.90;99.90
41939;DHT22;23057;48.554;14.454;2022-12-18T11:32:28;-5.00;99.90
41939;DHT22;23057;48.554;14.454;2022-12-18T11:35:17;-5.00;1.00
41939;DHT22;23057;48.554;14.454;2022-12-18T11:41:21;-4.80;1.00
41939;DHT22;23057;48.554;14.454;2022-12-18T11:44:35;-4.80;1.00
41939;DHT22;23057;48.554;14.454;2022-12-18T11:47:22;-4.80;1.00
41939;DHT22;23057;48.554;14.454;2022-12-18T11:50:17;-4.80;1.00
41939;DHT22;23057;48.554;14.454;2022-12-18T11:52:54;-4.50;1.00
41939;DHT22;23057;48.554;14.454;2022-12-18T11:58:51;-4.50;99.90
41939;DHT22;23057;48.554;14.454;2022-12-18T12:01:37;-4.50;1.00
41939;DHT22;23057;48.554;14.454;2022-12-18T12:15:02;-4.20;1.00
41939;DHT22;23057;48.554;14.454;2022-12-18T12:23:56;-4.00;1.00
41939;DHT22;23057;48.554;14.454;2022-12-18T12:30:22;-3.60;1.00
41939;DHT22;23057;48.554;14.454;2022-12-18T12:33:18;-3.50;1.00
41939;DHT22;23057;48.554;14.454;2022-12-18T12:38:46;-3.40;99.90
41939;DHT22;23057;48.554;14.454;2022-12-18T12:41:30;-3.40;99.90
41939;DHT22;23057;48.554;14.454;2022-12-18T12:44:30;-3.40;99.90
41939;DHT22;23057;48.554;14.454;2022-12-18T12:47:32;-3.40;99.90
41939;DHT22;23057;48.554;14.454;2022-12-18T12:50:17;-3.50;99.90
41939;DHT22;23057;48.554;14.454;2022-12-18T12:52:54;-3.60;99.90
41939;DHT22;23057;48.554;14.454;2022-12-18T12:55:28;-3.70;99.90
41939;DHT22;23057;48.554;14.454;2022-12-18T13:04:02;-3.70;99.90
41939;DHT22;23057;48.554;14.454;2022-12-18T13:07:04;-3.60;99.90
41939;DHT22;23057;48.554;14.454;2022-12-18T13:10:13;-3.50;1.00
41939;DHT22;23057;48.554;14.454;2022-12-18T13:15:42;-3.40;1.00
41939;DHT22;23057;48.554;14.454;2022-12-18T13:18:21;-3.40;1.00
41939;DHT22;23057;48.554;14.454;2022-12-18T13:23:32;-3.40;99.90
41939;DHT22;23057;48.554;14.454;2022-12-18T13:34:17;-2.90;1.00
41939;DHT22;23057;48.554;14.454;2022-12-18T13:36:54;-2.90;99.90
41939;DHT22;23057;48.554;14.454;2022-12-18T13:39:34;-3.30;99.90
41939;DHT22;23057;48.554;14.454;2022-12-18T13:44:37;-3.20;1.00
41939;DHT22;23057;48.554;14.454;2022-12-18T13:47:37;-3.10;1.00
41939;DHT22;23057;48.554;14.454;2022-12-18T13:50:26;-3.10;1.00
41939;DHT22;23057;48.554;14.454;2022-12-18T13:52:58;-3.30;1.00
41939;DHT22;23057;48.554;14.454;2022-12-18T13:55:28;-3.70;1.00
41939;DHT22;23057;48.554;14.454;2022-12-18T13:58:06;-4.20;1.00
41939;DHT22;23057;48.554;14.454;2022-12-18T14:00:41;-4.40;46.40
41939;DHT22;23057;48.554;14.454;2022-12-18T14:03:26;-4.00;99.90
41939;DHT22;23057;48.554;14.454;2022-12-18T14:06:02;-3.80;99.90
41939;DHT22;23057;48.554;14.454;2022-12-18T14:08:40;-4.20;67.60
41939;DHT22;23057;48.554;14.454;2022-12-18T14:11:20;-4.60;99.90
41939;DHT22;23057;48.554;14.454;2022-12-18T14:13:53;-4.80;99.90
41939;DHT22;23057;48.554;14.454;2022-12-18T14:16:24;-4.90;99.90
41939;DHT22;23057;48.554;14.454;2022-12-18T14:18:57;-4.80;99.90
41939;DHT22;23057;48.554;14.454;2022-12-18T14:21:29;-4.70;99.90
41939;DHT22;23057;48.554;14.454;2022-12-18T14:24:05;-4.60;99.90
41939;DHT22;23057;48.554;14.454;2022-12-18T14:26:49;-4.70;99.90
41939;DHT22;23057;48.554;14.454;2022-12-18T14:29:24;-4.80;99.90
41939;DHT22;23057;48.554;14.454;2022-12-18T14:34:51;-5.20;99.90
41939;DHT22;23057;48.554;14.454;2022-12-18T14:37:25;-5.40;99.90
41939;DHT22;23057;48.554;14.454;2022-12-18T14:39:59;-5.40;99.90
41939;DHT22;23057;48.554;14.454;2022-12-18T14:42:33;-5.40;1.00
41939;DHT22;23057;48.554;14.454;2022-12-18T14:45:32;-5.50;1.00
41939;DHT22;23057;48.554;14.454;2022-12-18T14:51:16;-5.90;99.90
41939;DHT22;23057;48.554;14.454;2022-12-18T14:54:02;-6.10;1.00
41939;DHT22;23057;48.554;14.454;2022-12-18T14:56:47;-6.30;1.00
41939;DHT22;23057;48.554;14.454;2022-12-18T14:59:24;-6.40;1.00
41939;DHT22;23057;48.554;14.454;2022-12-18T15:02:04;-6.40;63.60
41939;DHT22;23057;48.554;14.454;2022-12-18T15:05:24;-6.50;99.90
41939;DHT22;23057;48.554;14.454;2022-12-18T15:07:59;-6.60;99.90
41939;DHT22;23057;48.554;14.454;2022-12-18T15:10:33;-6.70;1.00
41939;DHT22;23057;48.554;14.454;2022-12-18T15:20:54;-7.30;99.90
41939;DHT22;23057;48.554;14.454;2022-12-18T15:23:51;-7.30;99.90
41939;DHT22;23057;48.554;14.454;2022-12-18T15:26:23;-7.30;99.90
41939;DHT22;23057;48.554;14.454;2022-12-18T15:28:55;-7.40;99.90
41939;DHT22;23057;48.554;14.454;2022-12-18T15:31:36;-7.30;99.90
41939;DHT22;23057;48.554;14.454;2022-12-18T15:34:22;-7.40;99.90
41939;DHT22;23057;48.554;14.454;2022-12-18T15:36:54;-7.40;99.90
41939;DHT22;23057;48.554;14.454;2022-12-18T15:39:25;-7.50;99.90
41939;DHT22;23057;48.554;14.454;2022-12-18T15:41:56;-7.60;99.90
41939;DHT22;23057;48.554;14.454;2022-12-18T15:44:45;-7.70;99.90
41939;DHT22;23057;48.554;14.454;2022-12-18T15:47:16;-7.80;99.90
41939;DHT22;23057;48.554;14.454;2022-12-18T15:49:47;-7.90;99.90
41939;DHT22;23057;48.554;14.454;2022-12-18T15:52:18;-8.10;99.90
41939;DHT22;23057;48.554;14.454;2022-12-18T15:54:56;-8.20;99.90
41939;DHT22;23057;48.554;14.454;2022-12-18T15:57:45;-8.20;99.90
41939;DHT22;23057;48.554;14.454;2022-12-18T16:00:16;-8.30;99.90
41939;DHT22;23057;48.554;14.454;2022-12-18T16:02:48;-8.40;99.90
41939;DHT22;23057;48.554;14.454;2022-12-18T16:05:20;-8.50;99.90
41939;DHT22;23057;48.554;14.454;2022-12-18T16:07:52;-8.60;99.90
41939;DHT22;23057;48.554;14.454;2022-12-18T16:10:24;-8.60;99.90
41939;DHT22;23057;48.554;14.454;2022-12-18T16:12:56;-8.50;99.90
41939;DHT22;23057;48.554;14.454;2022-12-18T16:15:27;-8.50;99.90
41939;DHT22;23057;48.554;14.454;2022-12-18T16:17:58;-8.50;99.90
41939;DHT22;23057;48.554;14.454;2022-12-18T16:20:29;-8.50;99.90
41939;DHT22;23057;48.554;14.454;2022-12-18T16:22:59;-8.50;99.90
41939;DHT22;23057;48.554;14.454;2022-12-18T16:25:30;-8.60;99.90
41939;DHT22;23057;48.554;14.454;2022-12-18T16:28:02;-8.60;99.90
41939;DHT22;23057;48.554;14.454;2022-12-18T16:30:33;-8.60;99.90
41939;DHT22;23057;48.554;14.454;2022-12-18T16:33:04;-8.60;99.90
41939;DHT22;23057;48.554;14.454;2022-12-18T16:35:35;-8.70;99.90
41939;DHT22;23057;48.554;14.454;2022-12-18T16:38:07;-8.90;99.90
41939;DHT22;23057;48.554;14.454;2022-12-18T16:40:38;-9.00;99.90
41939;DHT22;23057;48.554;14.454;2022-12-18T16:43:29;-9.00;99.90
41939;DHT22;23057;48.554;14.454;2022-12-18T16:45:59;-8.90;99.90
41939;DHT22;23057;48.554;14.454;2022-12-18T16:48:30;-8.90;99.90
41939;DHT22;23057;48.554;14.454;2022-12-18T16:51:04;-9.00;99.90
41939;DHT22;23057;48.554;14.454;2022-12-18T16:53:35;-9.00;99.90
41939;DHT22;23057;48.554;14.454;2022-12-18T16:56:06;-8.90;99.90
41939;DHT22;23057;48.554;14.454;2022-12-18T16:58:37;-8.90;99.90
41939;DHT22;23057;48.554;14.454;2022-12-18T17:01:09;-8.90;99.90
41939;DHT22;23057;48.554;14.454;2022-12-18T17:03:41;-9.00;99.90
41939;DHT22;23057;48.554;14.454;2022-12-18T17:06:12;-9.10;99.90
41939;DHT22;23057;48.554;14.454;2022-12-18T17:08:42;-9.10;99.90
41939;DHT22;23057;48.554;14.454;2022-12-18T17:11:13;-9.20;99.90
41939;DHT22;23057;48.554;14.454;2022-12-18T17:13:44;-9.30;99.90
41939;DHT22;23057;48.554;14.454;2022-12-18T17:16:16;-9.20;99.90
41939;DHT22;23057;48.554;14.454;2022-12-18T17:18:48;-9.20;99.90
41939;DHT22;23057;48.554;14.454;2022-12-18T17:21:19;-9.20;99.90
41939;DHT22;23057;48.554;14.454;2022-12-18T17:23:49;-9.20;99.90
41939;DHT22;23057;48.554;14.454;2022-12-18T17:26:20;-9.20;99.90
41939;DHT22;23057;48.554;14.454;2022-12-18T17:28:51;-9.30;99.90
41939;DHT22;23057;48.554;14.454;2022-12-18T17:31:24;-9.30;99.90
41939;DHT22;23057;48.554;14.454;2022-12-18T17:33:57;-9.20;99.90
41939;DHT22;23057;48.554;14.454;2022-12-18T17:36:31;-9.30;99.90
41939;DHT22;23057;48.554;14.454;2022-12-18T17:39:04;-9.30;99.90
41939;DHT22;23057;48.554;14.454;2022-12-18T17:41:35;-9.30;99.90
41939;DHT22;23057;48.554;14.454;2022-12-18T17:44:07;-9.50;99.90